Capitol Logistics 207




KRFD
Chicago/Rockford International Airport
Rockford, Illinois
KMIA
Miami International Airport
Miami, Florida

Activity Log

Date Flight Route Aircraft Duration
04/04/2021 CPX207 PIGGG CYBIL PXV J73 LGC GOONS BULZI Q81 ENDEW JUULI SSCOT5 B763 2h 46m
02/22/2021 CPX207 BVT J89 ATL J45 OMN HILEY7 B763 2h 52m
02/15/2021 CPX207 BVT J89 ATL J45 OMN HILEY7 B763 3h 02m
02/11/2021 CPX207 BVT J89 ATL J45 OMN HILEY7 B763 2h 54m
02/05/2021 CPX207 BVT J89 ATL J45 OMN HILEY7 B763 2h 54m
01/27/2021 CPX207 BVT J89 ATL J45 OMN HILEY7 B763 2h 56m
01/22/2021 CPX207 BVT J89 ATL J45 OMN HILEY7 B763 2h 37m
05/12/2020 CPX207 JERKY JOT TTH GQO AMG OMN MLB ANNEY4 B763 2h 48m
01/13/2020 CPX207 BVT J89 ATL J45 OMN HILEY7 B763 2h 56m
12/31/2019 CPX451 OBK J89 IIU J99 IRQ J53 ORL V159 TRV B738 3h 00m
12/30/2019 CPX207 BVT J89 ATL J45 OMN HILEY7 B763 3h 24m
11/28/2019 CPX451 BVT J89 ATL J45 OMN HILEY7 B738 2h 47m
07/06/2019 CPX207 BVT J89 ATL J45 OMN HILEY7 B763 3h 10m
05/10/2019 CPX207 BVT J89 ATL J45 OMN HILEY7 B763 2h 50m
12/08/2018 CPX351 JOT LVT TAY SSCOT5 B752 2h 46m
11/29/2018 CPX351 JOT LVT TAY SSCOT4 B752 2h 52m

Route Details

Aircraft Information
Primary: Boeing 767-300BDSF
Backup: Boeing 757-200SF
Route Data
Distance: 1075nm
Duration: 2h 50m
Recm'd Route: PIGGG CYBIL PXV J73 LGC GOONS BULZI Q81 ENDEW JUULI SSCOT5
Origin Wx: KRFD 180254Z 11005KT 10SM BKN250 08/M01 A2998 RMK AO2 SLP155 T00781006 53008
Dest. Wx: KMIA 180253Z 27005KT 10SM CLR 25/19 A2992 RMK AO2 SLP131 T02500194 51013 $
Notes: